createdAt,value
2023-10-23T00:01:52.307Z,84.11
2023-10-23T00:04:23.525Z,84.16
2023-10-23T00:06:54.642Z,84.09
2023-10-23T00:09:25.833Z,84.15
2023-10-23T00:11:56.879Z,84.10
2023-10-23T00:14:27.897Z,84.07
2023-10-23T00:16:59.135Z,84.10
2023-10-23T00:19:30.320Z,84.05
2023-10-23T00:22:01.317Z,83.95
2023-10-23T00:24:32.291Z,84.07
2023-10-23T00:27:03.311Z,84.02
2023-10-23T00:29:34.298Z,83.99
2023-10-23T00:32:05.648Z,83.96
2023-10-23T00:34:37.760Z,84.00
2023-10-23T00:37:09.173Z,84.00
2023-10-23T00:39:40.169Z,83.96
2023-10-23T00:42:11.211Z,83.93
2023-10-23T00:44:42.137Z,83.92
2023-10-23T00:47:14.159Z,83.92
2023-10-23T00:49:47.027Z,83.93
2023-10-23T00:52:18.560Z,83.99
2023-10-23T00:54:49.930Z,84.04
2023-10-23T00:57:21.939Z,83.96
2023-10-23T00:59:53.552Z,83.92
2023-10-23T01:02:25.513Z,84.02
2023-10-23T01:04:56.727Z,84.08
2023-10-23T01:07:27.764Z,84.06
2023-10-23T01:09:58.885Z,84.06
2023-10-23T01:12:30.102Z,84.07
2023-10-23T01:15:01.141Z,84.04
2023-10-23T01:17:33.229Z,84.15
2023-10-23T01:20:04.763Z,84.18
2023-10-23T01:22:35.773Z,84.18
2023-10-23T01:25:14.635Z,84.23
2023-10-23T01:27:46.005Z,84.24
2023-10-23T01:30:17.258Z,84.18
2023-10-23T01:32:48.744Z,84.26
2023-10-23T01:35:19.774Z,84.23
2023-10-23T01:37:51.020Z,84.20
2023-10-23T01:40:22.404Z,84.18
2023-10-23T01:42:53.953Z,84.18
2023-10-23T01:45:25.209Z,84.17
2023-10-23T01:47:56.417Z,84.20
2023-10-23T01:50:27.497Z,84.08
2023-10-23T01:52:58.534Z,84.01
2023-10-23T01:55:29.787Z,84.00
2023-10-23T01:58:01.508Z,84.03
2023-10-23T02:00:33.747Z,83.99
2023-10-23T02:03:05.830Z,83.95
2023-10-23T02:05:37.201Z,83.91
2023-10-23T02:08:08.683Z,83.81
2023-10-23T02:10:39.732Z,83.61
2023-10-23T02:13:12.545Z,83.62
2023-10-23T02:15:43.623Z,83.56
2023-10-23T02:18:15.199Z,83.40
2023-10-23T02:20:46.312Z,83.32
2023-10-23T02:23:19.257Z,83.29
2023-10-23T02:25:50.633Z,83.28
2023-10-23T02:28:21.713Z,83.22
2023-10-23T02:30:52.889Z,83.25
2023-10-23T02:33:24.083Z,83.18
2023-10-23T02:35:55.105Z,83.11
2023-10-23T02:38:26.098Z,83.11
2023-10-23T02:40:57.664Z,83.05
2023-10-23T02:43:28.854Z,83.03
2023-10-23T02:46:03.985Z,83.06
2023-10-23T02:48:35.950Z,82.98
2023-10-23T02:51:06.942Z,82.93
2023-10-23T02:53:37.988Z,82.87
2023-10-23T02:56:13.662Z,82.84
2023-10-23T02:58:45.521Z,82.81
2023-10-23T03:01:21.959Z,82.77
2023-10-23T03:03:53.853Z,82.67
2023-10-23T03:06:24.993Z,82.68
2023-10-23T03:08:56.639Z,82.60
2023-10-23T03:11:27.689Z,82.67
2023-10-23T03:13:58.639Z,82.59
2023-10-23T03:16:30.854Z,82.48
2023-10-23T03:19:02.054Z,82.48
2023-10-23T03:21:33.727Z,82.47
2023-10-23T03:24:04.894Z,82.43
2023-10-23T03:26:35.972Z,82.44
2023-10-23T03:29:06.998Z,82.55
2023-10-23T03:31:38.186Z,82.43
2023-10-23T03:34:09.921Z,82.35
2023-10-23T03:36:40.972Z,82.43
2023-10-23T03:39:12.184Z,82.34
2023-10-23T03:41:43.745Z,82.36
2023-10-23T03:44:15.157Z,82.34
2023-10-23T03:46:46.447Z,82.27
2023-10-23T03:49:17.596Z,82.29
2023-10-23T03:51:48.578Z,82.31
2023-10-23T03:54:19.616Z,82.35
2023-10-23T03:56:50.686Z,82.26
2023-10-23T03:59:21.726Z,82.16
2023-10-23T04:01:53.676Z,82.14
2023-10-23T04:04:24.909Z,82.19
2023-10-23T04:06:56.072Z,82.15
2023-10-23T04:09:30.709Z,82.26
2023-10-23T04:12:02.004Z,82.32
2023-10-23T04:14:33.098Z,82.30
2023-10-23T04:17:05.640Z,82.40
2023-10-23T04:19:36.851Z,82.28
2023-10-23T04:22:08.305Z,82.30
2023-10-23T04:24:39.553Z,82.38
2023-10-23T04:27:10.552Z,82.29
2023-10-23T04:29:41.823Z,82.27
2023-10-23T04:32:12.854Z,82.31
2023-10-23T04:34:43.966Z,82.29
2023-10-23T04:37:14.950Z,82.33
2023-10-23T04:39:48.397Z,82.34
2023-10-23T04:42:19.736Z,82.29
2023-10-23T04:44:51.802Z,82.22
2023-10-23T04:47:22.758Z,82.16
2023-10-23T04:49:54.242Z,82.12
2023-10-23T04:52:25.758Z,82.15
2023-10-23T04:54:57.554Z,82.24
2023-10-23T04:57:28.712Z,82.16
2023-10-23T05:00:02.509Z,82.19
2023-10-23T05:02:34.452Z,82.21
2023-10-23T05:05:07.614Z,82.18
2023-10-23T05:07:38.896Z,82.11
2023-10-23T05:10:13.242Z,82.17
2023-10-23T05:12:48.429Z,82.09
2023-10-23T05:15:20.628Z,82.20
2023-10-23T05:17:51.954Z,82.18
2023-10-23T05:20:23.356Z,82.26
2023-10-23T05:22:54.887Z,82.23
2023-10-23T05:25:26.962Z,82.29
2023-10-23T05:27:58.533Z,82.21
2023-10-23T05:30:29.672Z,82.23
2023-10-23T05:33:01.061Z,82.26
2023-10-23T05:35:32.125Z,82.24
2023-10-23T05:38:03.113Z,82.19
2023-10-23T05:40:34.216Z,82.23
2023-10-23T05:43:05.422Z,82.23
2023-10-23T05:45:40.005Z,82.26
2023-10-23T05:48:11.580Z,82.32
2023-10-23T05:50:42.491Z,82.34
2023-10-23T05:53:13.463Z,82.44
2023-10-23T05:55:44.646Z,82.45
2023-10-23T05:58:15.813Z,82.52
2023-10-23T06:00:46.876Z,82.63
2023-10-23T06:03:18.509Z,82.59
2023-10-23T06:05:50.196Z,82.80
2023-10-23T06:08:22.197Z,82.81
2023-10-23T06:10:54.816Z,82.76
2023-10-23T06:13:25.894Z,82.81
2023-10-23T06:16:03.811Z,82.78
2023-10-23T06:18:36.021Z,82.79
2023-10-23T06:21:08.672Z,82.99
2023-10-23T06:23:41.370Z,82.77
2023-10-23T06:26:12.491Z,82.76
2023-10-23T06:28:43.488Z,82.97
2023-10-23T06:31:14.982Z,82.95
2023-10-23T06:33:45.959Z,83.03
2023-10-23T06:36:16.953Z,83.12
2023-10-23T06:38:47.909Z,83.17
2023-10-23T06:41:18.926Z,83.19
2023-10-23T06:43:50.126Z,83.14
2023-10-23T06:46:21.701Z,83.12
2023-10-23T06:48:52.924Z,83.17
2023-10-23T06:51:37.761Z,82.91
2023-10-23T06:54:09.496Z,82.89
2023-10-23T06:56:40.934Z,82.87
2023-10-23T06:59:12.050Z,82.95
2023-10-23T07:01:45.235Z,83.04
2023-10-23T07:04:16.999Z,83.28
2023-10-23T07:06:48.161Z,84.15
2023-10-23T07:09:19.466Z,84.56
2023-10-23T07:11:52.500Z,83.84
2023-10-23T07:14:23.709Z,83.48
2023-10-23T07:16:54.757Z,82.98
2023-10-23T07:19:25.921Z,82.51
2023-10-23T07:21:57.301Z,82.10
2023-10-23T07:24:28.548Z,81.71
2023-10-23T07:27:00.874Z,81.42
2023-10-23T07:29:33.299Z,81.32
2023-10-23T07:32:05.061Z,81.15
2023-10-23T07:34:36.303Z,80.97
2023-10-23T07:37:09.830Z,80.89
2023-10-23T07:39:47.755Z,80.74
2023-10-23T07:42:19.156Z,80.65
2023-10-23T07:44:50.474Z,80.58
2023-10-23T07:47:21.800Z,80.60
2023-10-23T07:49:53.109Z,80.55
2023-10-23T07:52:24.222Z,80.63
2023-10-23T07:54:55.792Z,80.42
2023-10-23T07:57:27.126Z,80.47
2023-10-23T07:59:58.427Z,80.60
2023-10-23T08:02:29.864Z,80.63
2023-10-23T08:05:01.310Z,80.48
2023-10-23T08:07:32.560Z,80.45
2023-10-23T08:10:05.435Z,80.32
2023-10-23T08:12:36.709Z,80.18
2023-10-23T08:15:08.920Z,79.97
2023-10-23T08:17:42.796Z,79.77
2023-10-23T08:20:15.033Z,79.76
2023-10-23T08:22:46.217Z,79.56
2023-10-23T08:25:18.035Z,79.79
2023-10-23T08:27:49.625Z,79.68
2023-10-23T08:30:21.090Z,79.62
2023-10-23T08:32:55.828Z,79.62
2023-10-23T08:35:29.437Z,79.51
2023-10-23T08:38:00.818Z,79.17
2023-10-23T08:40:33.050Z,78.92
2023-10-23T08:43:05.002Z,78.80
2023-10-23T08:45:36.543Z,78.82
2023-10-23T08:48:07.924Z,78.74
2023-10-23T08:50:39.900Z,78.74
2023-10-23T08:53:13.102Z,78.91
2023-10-23T08:55:45.915Z,78.83
2023-10-23T08:58:18.505Z,78.96
2023-10-23T09:00:50.002Z,78.86
2023-10-23T09:04:02.135Z,78.35
2023-10-23T09:06:18.213Z,78.02
2023-10-23T09:08:49.410Z,77.62
2023-10-23T09:11:21.878Z,77.37
2023-10-23T09:13:53.003Z,77.20
2023-10-23T09:16:24.526Z,76.89
2023-10-23T09:18:56.418Z,76.67
2023-10-23T09:21:27.900Z,76.15
2023-10-23T09:24:01.882Z,76.11
2023-10-23T09:26:33.130Z,76.07
2023-10-23T09:29:04.797Z,76.20
2023-10-23T09:31:37.164Z,76.02
2023-10-23T09:34:09.555Z,75.84
2023-10-23T09:36:42.888Z,75.39
2023-10-23T09:39:14.206Z,75.11
2023-10-23T09:41:47.328Z,74.57
2023-10-23T09:44:19.725Z,74.55
2023-10-23T09:46:53.435Z,74.55
2023-10-23T09:49:25.513Z,74.42
2023-10-23T09:52:01.665Z,74.44
2023-10-23T09:54:34.999Z,74.15
2023-10-23T09:57:07.603Z,74.11
2023-10-23T09:59:46.322Z,73.99
2023-10-23T10:02:20.022Z,73.94
2023-10-23T10:05:05.892Z,74.06
2023-10-23T10:07:43.857Z,74.10
2023-10-23T10:10:15.638Z,73.94
2023-10-23T10:12:48.610Z,73.88
2023-10-23T10:15:20.172Z,73.70
2023-10-23T10:17:53.183Z,73.56
2023-10-23T10:20:26.094Z,73.40
2023-10-23T10:23:06.968Z,73.28
2023-10-23T10:25:39.989Z,73.48
2023-10-23T10:28:12.430Z,73.40
2023-10-23T10:30:47.195Z,73.55
2023-10-23T10:34:25.068Z,73.78
2023-10-23T10:36:44.995Z,73.82
2023-10-23T10:39:10.102Z,73.90
2023-10-23T10:41:42.375Z,73.93
2023-10-23T10:44:13.973Z,73.99
2023-10-23T10:46:48.884Z,74.24
2023-10-23T10:49:23.822Z,74.21
2023-10-23T10:51:56.294Z,74.26
2023-10-23T10:54:36.023Z,74.36
2023-10-23T10:57:15.525Z,74.45
2023-10-23T10:59:46.934Z,74.33
2023-10-23T11:02:18.852Z,74.47
2023-10-23T11:04:49.969Z,74.40
2023-10-23T11:07:24.316Z,74.16
2023-10-23T11:09:56.118Z,74.13
2023-10-23T11:12:27.645Z,74.14
2023-10-23T11:14:58.710Z,73.88
2023-10-23T11:17:31.271Z,73.87
2023-10-23T11:20:07.292Z,73.93
2023-10-23T11:22:43.044Z,73.88
2023-10-23T11:25:14.973Z,74.04
2023-10-23T11:27:51.810Z,74.10
2023-10-23T11:30:26.140Z,73.88
2023-10-23T11:32:58.261Z,74.00
2023-10-23T11:35:36.568Z,73.92
2023-10-23T11:38:07.741Z,73.97
2023-10-23T11:40:39.122Z,74.16
2023-10-23T11:43:13.394Z,74.05
2023-10-23T11:45:47.283Z,74.30
2023-10-23T11:48:18.849Z,74.13
2023-10-23T11:50:50.194Z,73.80
2023-10-23T11:53:21.779Z,73.63
2023-10-23T11:55:57.251Z,73.71
2023-10-23T11:58:31.199Z,73.94
2023-10-23T12:01:04.368Z,73.78
2023-10-23T12:03:35.577Z,73.77
2023-10-23T12:06:07.693Z,73.80
2023-10-23T12:08:38.703Z,73.90
2023-10-23T12:11:09.757Z,73.70
2023-10-23T12:13:41.368Z,73.68
2023-10-23T12:16:14.267Z,73.57
2023-10-23T12:18:46.429Z,73.68
2023-10-23T12:21:18.081Z,73.45
2023-10-23T12:23:49.467Z,73.44
2023-10-23T12:26:22.611Z,73.46
2023-10-23T12:28:54.042Z,73.46
2023-10-23T12:31:28.132Z,73.40
2023-10-23T12:34:03.022Z,73.46
2023-10-23T12:36:40.383Z,73.38
2023-10-23T12:39:13.239Z,73.29
2023-10-23T12:41:44.448Z,73.16
2023-10-23T12:44:15.877Z,73.03
2023-10-23T12:46:51.452Z,73.04
2023-10-23T12:49:23.440Z,73.14
2023-10-23T12:51:55.258Z,73.02
2023-10-23T12:54:26.803Z,72.99
2023-10-23T12:56:59.636Z,72.74
2023-10-23T12:59:31.120Z,72.85
2023-10-23T13:02:03.164Z,72.92
2023-10-23T13:04:35.153Z,72.82
2023-10-23T13:07:07.033Z,72.70
2023-10-23T13:09:39.098Z,72.85
2023-10-23T13:12:13.790Z,72.82
2023-10-23T13:14:44.993Z,72.76
2023-10-23T13:17:16.425Z,72.83
2023-10-23T13:19:47.716Z,72.88
2023-10-23T13:22:21.187Z,72.88
2023-10-23T13:24:52.686Z,72.84
2023-10-23T13:27:24.036Z,73.00
2023-10-23T13:29:55.429Z,73.00
2023-10-23T13:32:31.404Z,72.98
2023-10-23T13:35:14.271Z,72.91
2023-10-23T13:37:46.297Z,72.75
2023-10-23T13:40:18.239Z,72.68
2023-10-23T13:42:52.622Z,72.75
2023-10-23T13:45:26.725Z,72.66
2023-10-23T13:47:58.528Z,72.55
2023-10-23T13:50:30.373Z,72.54
2023-10-23T13:53:01.892Z,72.64
2023-10-23T13:55:33.169Z,72.79
2023-10-23T13:58:05.185Z,72.81
2023-10-23T14:00:36.908Z,72.63
2023-10-23T14:03:09.394Z,72.67
2023-10-23T14:05:43.133Z,72.72
2023-10-23T14:08:19.441Z,72.75
2023-10-23T14:11:57.725Z,72.80
2023-10-23T14:13:56.792Z,73.00
2023-10-23T14:16:28.872Z,72.99
2023-10-23T14:19:00.513Z,73.07
2023-10-23T14:21:32.001Z,73.17
2023-10-23T14:24:03.201Z,73.18
2023-10-23T14:26:35.164Z,73.17
2023-10-23T14:29:08.759Z,73.28
2023-10-23T14:31:40.343Z,73.34
2023-10-23T14:34:11.980Z,73.47
2023-10-23T14:36:43.319Z,73.59
2023-10-23T14:39:18.102Z,73.52
2023-10-23T14:41:50.300Z,73.55
2023-10-23T14:44:21.494Z,73.80
2023-10-23T14:46:53.868Z,73.79
2023-10-23T14:49:27.936Z,73.77
2023-10-23T14:51:59.568Z,73.98
2023-10-23T14:54:31.099Z,74.03
2023-10-23T14:57:04.003Z,74.06
2023-10-23T14:59:39.652Z,74.11
2023-10-23T15:02:11.668Z,74.23
2023-10-23T15:04:43.180Z,74.16
2023-10-23T15:07:14.704Z,74.08
2023-10-23T15:09:48.581Z,74.07
2023-10-23T15:12:21.393Z,74.13
2023-10-23T15:14:52.593Z,74.02
2023-10-23T15:17:24.466Z,74.03
2023-10-23T15:19:59.336Z,73.97
2023-10-23T15:22:32.457Z,74.01
2023-10-23T15:25:06.119Z,73.94
2023-10-23T15:27:37.806Z,74.01
2023-10-23T15:30:13.794Z,74.05
2023-10-23T15:32:46.788Z,73.94
2023-10-23T15:35:19.000Z,74.09
2023-10-23T15:37:50.679Z,74.09
2023-10-23T15:40:24.049Z,74.22
2023-10-23T15:42:56.475Z,74.21
2023-10-23T15:45:38.213Z,74.22
2023-10-23T15:48:10.401Z,74.23
2023-10-23T15:50:42.210Z,74.37
2023-10-23T15:53:17.551Z,74.47
2023-10-23T15:55:52.477Z,74.49
2023-10-23T15:58:25.708Z,74.49
2023-10-23T16:00:59.202Z,74.42
2023-10-23T16:03:30.381Z,74.51
2023-10-23T16:06:09.856Z,74.54
2023-10-23T16:08:41.980Z,74.61
2023-10-23T16:11:14.190Z,74.70
2023-10-23T16:13:51.434Z,74.71
2023-10-23T16:16:22.752Z,74.85
2023-10-23T16:18:54.020Z,75.06
2023-10-23T16:21:26.339Z,75.03
2023-10-23T16:23:57.475Z,75.15
2023-10-23T16:26:28.576Z,75.28
2023-10-23T16:29:00.940Z,75.26
2023-10-23T16:31:32.245Z,75.41
2023-10-23T16:34:05.359Z,75.55
2023-10-23T16:36:37.058Z,75.65
2023-10-23T16:39:13.151Z,75.63
2023-10-23T16:41:45.969Z,75.67
2023-10-23T16:44:17.319Z,75.67
2023-10-23T16:46:54.334Z,75.79
2023-10-23T16:49:25.781Z,75.98
2023-10-23T16:51:58.036Z,75.92
2023-10-23T16:54:32.644Z,76.16
2023-10-23T16:57:05.739Z,76.16
2023-10-23T16:59:39.300Z,76.25
2023-10-23T17:02:18.412Z,76.36
2023-10-23T17:04:50.161Z,76.43
2023-10-23T17:07:21.125Z,76.38
2023-10-23T17:09:52.181Z,76.33
2023-10-23T17:12:23.185Z,76.34
2023-10-23T17:14:54.246Z,76.38
2023-10-23T17:17:25.249Z,76.56
2023-10-23T17:19:56.428Z,76.61
2023-10-23T17:22:27.585Z,76.72
2023-10-23T17:24:58.647Z,76.81
2023-10-23T17:27:30.163Z,76.88
2023-10-23T17:30:01.331Z,76.95
2023-10-23T17:32:32.507Z,77.08
2023-10-23T17:35:04.153Z,77.14
2023-10-23T17:37:35.377Z,77.32
2023-10-23T17:40:08.188Z,77.38
2023-10-23T17:42:40.702Z,77.47
2023-10-23T17:45:13.173Z,77.53
2023-10-23T17:47:47.052Z,77.60
2023-10-23T17:50:18.358Z,77.65
2023-10-23T17:52:50.038Z,77.63
2023-10-23T17:55:21.169Z,77.48
2023-10-23T17:57:52.249Z,77.50
2023-10-23T18:00:26.388Z,77.30
2023-10-23T18:02:57.950Z,77.19
2023-10-23T18:05:29.249Z,77.22
2023-10-23T18:08:00.813Z,77.17
2023-10-23T18:10:32.125Z,77.17
2023-10-23T18:13:03.367Z,77.20
2023-10-23T18:15:34.629Z,77.25
2023-10-23T18:18:21.526Z,77.28
2023-10-23T18:20:55.306Z,77.27
2023-10-23T18:23:26.514Z,77.25
2023-10-23T18:26:02.226Z,77.29
2023-10-23T18:28:33.682Z,77.19
2023-10-23T18:31:05.435Z,77.12
2023-10-23T18:33:36.960Z,77.34
2023-10-23T18:36:14.689Z,77.32
2023-10-23T18:38:47.566Z,77.28
2023-10-23T18:41:22.654Z,77.32
2023-10-23T18:43:55.033Z,77.47
2023-10-23T18:46:26.342Z,77.53
2023-10-23T18:48:59.397Z,77.63
2023-10-23T18:51:30.729Z,77.64
2023-10-23T18:54:03.608Z,77.62
2023-10-23T18:56:34.893Z,77.64
2023-10-23T18:59:07.565Z,77.58
2023-10-23T19:01:38.805Z,77.55
2023-10-23T19:04:10.293Z,77.58
2023-10-23T19:06:41.598Z,77.77
2023-10-23T19:09:14.000Z,77.76
2023-10-23T19:11:45.537Z,77.72
2023-10-23T19:14:16.845Z,77.83
2023-10-23T19:16:47.903Z,77.59
2023-10-23T19:19:19.480Z,77.62
2023-10-23T19:21:50.542Z,77.63
2023-10-23T19:24:21.966Z,77.54
2023-10-23T19:26:53.712Z,77.52
2023-10-23T19:29:26.924Z,77.61
2023-10-23T19:31:59.676Z,77.63
2023-10-23T19:34:32.975Z,77.60
2023-10-23T19:37:05.065Z,77.75
2023-10-23T19:39:38.523Z,77.64
2023-10-23T19:42:12.838Z,77.57
2023-10-23T19:44:45.220Z,77.43
2023-10-23T19:47:18.265Z,77.53
2023-10-23T19:49:50.658Z,77.61
2023-10-23T19:52:22.934Z,77.77
2023-10-23T19:55:04.296Z,78.00
2023-10-23T19:57:48.614Z,78.12
2023-10-23T20:00:20.738Z,77.95
2023-10-23T20:02:52.015Z,77.79
2023-10-23T20:05:23.237Z,77.88
2023-10-23T20:07:54.515Z,77.87
2023-10-23T20:10:26.121Z,77.99
2023-10-23T20:12:57.513Z,77.95
2023-10-23T20:15:30.559Z,77.96
2023-10-23T20:18:02.166Z,78.09
2023-10-23T20:20:33.212Z,77.82
2023-10-23T20:23:04.256Z,77.80
2023-10-23T20:25:36.062Z,77.83
2023-10-23T20:28:07.315Z,77.91
2023-10-23T20:30:38.316Z,78.12
2023-10-23T20:33:10.016Z,78.20
2023-10-23T20:35:45.167Z,78.36
2023-10-23T20:38:16.542Z,78.48
2023-10-23T20:40:47.546Z,78.50
2023-10-23T20:43:18.578Z,78.48
2023-10-23T20:45:49.588Z,78.54
2023-10-23T20:48:21.189Z,78.35
2023-10-23T20:50:52.120Z,78.34
2023-10-23T20:53:23.214Z,78.32
2023-10-23T20:55:55.454Z,78.41
2023-10-23T20:58:27.857Z,78.75
2023-10-23T21:00:58.950Z,78.80
2023-10-23T21:03:30.705Z,78.67
2023-10-23T21:06:05.677Z,78.47
2023-10-23T21:08:38.945Z,78.25
2023-10-23T21:11:09.906Z,78.10
2023-10-23T21:13:40.967Z,78.15
2023-10-23T21:16:12.175Z,77.90
2023-10-23T21:18:43.317Z,78.01
2023-10-23T21:21:14.554Z,77.88
2023-10-23T21:23:45.830Z,77.62
2023-10-23T21:26:16.905Z,77.57
2023-10-23T21:28:48.229Z,77.59
2023-10-23T21:31:19.354Z,77.82
2023-10-23T21:33:50.549Z,77.82
2023-10-23T21:36:21.578Z,78.25
2023-10-23T21:38:52.544Z,78.44
2023-10-23T21:41:23.489Z,78.76
2023-10-23T21:43:54.576Z,78.91
2023-10-23T21:46:25.797Z,79.22
2023-10-23T21:48:56.846Z,79.19
2023-10-23T21:51:27.921Z,79.10
2023-10-23T21:54:00.463Z,79.19
2023-10-23T21:57:13.545Z,79.12
2023-10-23T21:59:24.647Z,79.11
2023-10-23T22:01:56.497Z,78.95
2023-10-23T22:04:28.639Z,78.92
2023-10-23T22:07:00.786Z,78.99
2023-10-23T22:09:32.987Z,79.18
2023-10-23T22:12:06.749Z,79.12
2023-10-23T22:14:38.826Z,79.15
2023-10-23T22:17:10.328Z,79.32
2023-10-23T22:19:41.531Z,79.46
2023-10-23T22:22:12.543Z,79.47
2023-10-23T22:24:43.664Z,79.38
2023-10-23T22:27:14.656Z,79.55
2023-10-23T22:29:45.636Z,79.75
2023-10-23T22:32:17.145Z,79.71
2023-10-23T22:34:48.306Z,79.66
2023-10-23T22:37:46.371Z,79.49
2023-10-23T22:40:13.675Z,79.61
2023-10-23T22:42:44.823Z,79.65
2023-10-23T22:45:15.788Z,79.69
2023-10-23T22:47:46.846Z,79.86
2023-10-23T22:50:19.532Z,79.83
2023-10-23T22:52:51.692Z,79.79
2023-10-23T22:55:23.974Z,79.73
2023-10-23T22:57:55.966Z,80.05
2023-10-23T23:00:27.927Z,79.88
2023-10-23T23:03:00.098Z,79.91
2023-10-23T23:05:32.124Z,80.30
2023-10-23T23:08:05.005Z,80.30
2023-10-23T23:10:37.232Z,80.24
2023-10-23T23:13:09.184Z,79.96
2023-10-23T23:15:42.062Z,79.98
2023-10-23T23:18:15.343Z,80.10
2023-10-23T23:20:49.502Z,80.16
2023-10-23T23:23:20.541Z,80.26
2023-10-23T23:25:51.573Z,79.94
2023-10-23T23:28:23.186Z,79.76
2023-10-23T23:30:54.340Z,79.44
2023-10-23T23:33:25.364Z,79.12
2023-10-23T23:35:57.062Z,78.88
2023-10-23T23:38:28.333Z,78.85
2023-10-23T23:40:59.306Z,78.75
2023-10-23T23:43:30.448Z,78.73
2023-10-23T23:46:02.305Z,78.56
2023-10-23T23:48:33.355Z,78.63
2023-10-23T23:51:04.734Z,78.89
2023-10-23T23:53:35.668Z,79.14
2023-10-23T23:56:07.168Z,79.18
2023-10-23T23:58:38.167Z,79.01
